createdAt,value
2023-02-24T00:02:04.455Z,6.67
2023-02-24T00:04:39.908Z,6.71
2023-02-24T00:07:10.505Z,6.48
2023-02-24T00:09:39.285Z,6.35
2023-02-24T00:12:13.135Z,6.40
2023-02-24T00:14:43.328Z,6.52
2023-02-24T00:17:14.458Z,6.49
2023-02-24T00:19:42.436Z,6.40
2023-02-24T00:22:10.252Z,6.61
2023-02-24T00:24:37.840Z,6.71
2023-02-24T00:27:11.972Z,6.60
2023-02-24T00:29:41.825Z,6.84
2023-02-24T00:32:12.822Z,6.80
2023-02-24T00:34:43.540Z,6.85
2023-02-24T00:37:12.120Z,6.66
2023-02-24T00:39:41.884Z,6.55
2023-02-24T00:42:11.891Z,6.52
2023-02-24T00:44:43.844Z,6.54
2023-02-24T00:47:12.172Z,6.43
2023-02-24T00:49:44.391Z,6.48
2023-02-24T00:52:22.316Z,6.45
2023-02-24T00:54:50.771Z,6.40
2023-02-24T00:57:20.526Z,6.31
2023-02-24T00:59:48.136Z,6.25
2023-02-24T01:02:16.044Z,6.36
2023-02-24T01:04:46.084Z,6.32
2023-02-24T01:07:14.615Z,6.36
2023-02-24T01:09:44.252Z,6.30
2023-02-24T01:12:22.173Z,6.26
2023-02-24T01:14:52.628Z,6.18
2023-02-24T01:17:21.587Z,6.08
2023-02-24T01:19:50.411Z,5.92
2023-02-24T01:22:20.231Z,5.89
2023-02-24T01:24:48.881Z,6.03
2023-02-24T01:27:19.079Z,6.04
2023-02-24T01:29:48.083Z,6.03
2023-02-24T01:32:19.342Z,6.03
2023-02-24T01:34:47.914Z,6.17
2023-02-24T01:37:16.586Z,6.09
2023-02-24T01:39:45.395Z,6.04
2023-02-24T01:42:19.824Z,5.93
2023-02-24T01:44:48.020Z,5.97
2023-02-24T01:47:20.854Z,5.87
2023-02-24T01:49:52.773Z,5.84
2023-02-24T01:52:24.427Z,5.87
2023-02-24T01:54:58.118Z,5.88
2023-02-24T01:57:31.393Z,5.89
2023-02-24T02:00:02.080Z,5.67
2023-02-24T02:02:30.101Z,5.59
2023-02-24T02:05:03.922Z,5.54
2023-02-24T02:07:31.686Z,5.51
2023-02-24T02:10:04.213Z,5.75
2023-02-24T02:12:37.253Z,5.59
2023-02-24T02:15:06.669Z,5.59
2023-02-24T02:17:49.013Z,5.67
2023-02-24T02:20:22.401Z,5.85
2023-02-24T02:23:14.597Z,5.69
2023-02-24T02:26:11.480Z,5.77
2023-02-24T02:29:28.715Z,5.75
2023-02-24T02:31:56.235Z,5.86
2023-02-24T02:34:27.664Z,5.80
2023-02-24T02:37:10.134Z,5.77
2023-02-24T02:39:58.892Z,5.80
2023-02-24T02:42:44.263Z,5.93
2023-02-24T02:45:47.818Z,5.85
2023-02-24T02:48:41.251Z,5.23
2023-02-24T02:51:11.861Z,5.19
2023-02-24T02:53:49.487Z,4.96
2023-02-24T02:56:22.212Z,4.84
2023-02-24T02:58:55.294Z,5.07
2023-02-24T03:01:28.547Z,5.30
2023-02-24T03:04:05.833Z,5.40
2023-02-24T03:06:53.256Z,5.41
2023-02-24T03:09:26.258Z,5.51
2023-02-24T03:12:02.214Z,5.61
2023-02-24T03:14:40.009Z,5.78
2023-02-24T03:17:21.672Z,5.78
2023-02-24T03:19:54.987Z,5.83
2023-02-24T03:22:41.177Z,5.96
2023-02-24T03:25:10.755Z,6.14
2023-02-24T03:27:49.421Z,6.10
2023-02-24T03:30:27.759Z,6.25
2023-02-24T03:33:06.713Z,6.38
2023-02-24T03:35:42.128Z,6.15
2023-02-24T03:38:11.816Z,6.14
2023-02-24T03:40:43.463Z,6.16
2023-02-24T03:43:22.294Z,5.88
2023-02-24T03:45:50.342Z,5.51
2023-02-24T03:48:17.886Z,5.52
2023-02-24T03:50:46.776Z,5.40
2023-02-24T03:53:53.375Z,5.43
2023-02-24T03:56:47.057Z,5.87
2023-02-24T03:59:52.957Z,5.69
2023-02-24T04:02:30.039Z,5.50
2023-02-24T04:05:20.736Z,5.72
2023-02-24T04:08:08.884Z,5.71
2023-02-24T04:10:52.636Z,5.70
2023-02-24T04:13:49.513Z,5.75
2023-02-24T04:16:28.995Z,5.49
2023-02-24T04:19:05.531Z,5.58
2023-02-24T04:21:38.589Z,5.68
2023-02-24T04:24:11.679Z,5.77
2023-02-24T04:26:42.962Z,5.91
2023-02-24T04:29:17.774Z,5.87
2023-02-24T04:31:50.297Z,6.01
2023-02-24T04:34:20.339Z,5.69
2023-02-24T04:36:50.064Z,5.48
2023-02-24T04:39:20.872Z,5.49
2023-02-24T04:41:52.337Z,5.64
2023-02-24T04:44:21.478Z,5.79
2023-02-24T04:46:50.496Z,5.81
2023-02-24T04:49:20.394Z,5.37
2023-02-24T04:51:47.834Z,5.27
2023-02-24T04:54:19.933Z,5.33
2023-02-24T04:56:50.894Z,5.31
2023-02-24T04:59:19.590Z,5.36
2023-02-24T05:01:51.721Z,5.31
2023-02-24T05:04:19.497Z,5.36
2023-02-24T05:06:47.471Z,5.36
2023-02-24T05:09:18.084Z,5.41
2023-02-24T05:11:49.165Z,5.34
2023-02-24T05:14:20.742Z,5.31
2023-02-24T05:16:49.306Z,5.33
2023-02-24T05:19:38.606Z,5.22
2023-02-24T05:22:07.303Z,5.14
2023-02-24T05:24:35.047Z,5.32
2023-02-24T05:27:03.947Z,5.28
2023-02-24T05:29:34.865Z,5.43
2023-02-24T05:32:04.689Z,5.27
2023-02-24T05:34:33.541Z,5.27
2023-02-24T05:37:04.506Z,5.32
2023-02-24T05:39:31.915Z,5.49
2023-02-24T05:42:06.210Z,5.38
2023-02-24T05:44:35.769Z,5.32
2023-02-24T05:47:05.603Z,5.48
2023-02-24T05:49:35.085Z,5.57
2023-02-24T05:52:10.216Z,5.55
2023-02-24T05:54:40.781Z,5.73
2023-02-24T05:57:12.064Z,5.95
2023-02-24T05:59:41.350Z,5.88
2023-02-24T06:02:13.020Z,6.06
2023-02-24T06:04:54.175Z,6.21
2023-02-24T06:07:28.426Z,6.24
2023-02-24T06:10:00.229Z,6.44
2023-02-24T06:12:33.965Z,6.53
2023-02-24T06:15:10.326Z,6.18
2023-02-24T06:17:37.814Z,5.78
2023-02-24T06:20:14.833Z,5.92
2023-02-24T06:22:42.671Z,6.07
2023-02-24T06:25:14.223Z,6.07
2023-02-24T06:27:43.217Z,6.27
2023-02-24T06:30:15.361Z,6.23
2023-02-24T06:32:43.196Z,6.22
2023-02-24T06:35:12.822Z,6.17
2023-02-24T06:37:41.198Z,6.30
2023-02-24T06:40:17.695Z,6.21
2023-02-24T06:42:52.326Z,6.30
2023-02-24T06:45:20.277Z,6.30
2023-02-24T06:47:48.944Z,6.46
2023-02-24T06:50:21.939Z,6.51
2023-02-24T06:52:50.732Z,6.36
2023-02-24T06:55:27.533Z,6.72
2023-02-24T06:58:04.481Z,6.82
2023-02-24T07:01:07.424Z,6.88
2023-02-24T07:04:37.752Z,7.06
2023-02-24T07:07:18.844Z,7.16
2023-02-24T07:10:02.894Z,7.11
2023-02-24T07:13:03.203Z,7.15
2023-02-24T07:15:37.660Z,7.08
2023-02-24T07:18:17.481Z,6.99
2023-02-24T07:20:48.503Z,6.91
2023-02-24T07:23:25.919Z,7.06
2023-02-24T07:26:04.631Z,7.19
2023-02-24T07:28:48.211Z,7.38
2023-02-24T07:31:27.308Z,7.57
2023-02-24T07:33:57.445Z,7.55
2023-02-24T07:36:30.157Z,7.41
2023-02-24T07:38:59.218Z,7.36
2023-02-24T07:41:26.919Z,7.27
2023-02-24T07:43:55.475Z,7.44
2023-02-24T07:46:25.800Z,7.67
2023-02-24T07:48:59.353Z,7.29
2023-02-24T07:51:28.252Z,7.32
2023-02-24T07:53:59.144Z,7.69
2023-02-24T07:56:29.346Z,7.71
2023-02-24T07:59:01.994Z,7.56
2023-02-24T08:01:39.229Z,7.32
2023-02-24T08:04:12.543Z,7.72
2023-02-24T08:06:47.864Z,7.86
2023-02-24T08:09:21.155Z,8.16
2023-02-24T08:11:56.816Z,8.38
2023-02-24T08:14:27.454Z,8.35
2023-02-24T08:17:23.220Z,8.47
2023-02-24T08:20:10.166Z,8.71
2023-02-24T08:22:46.990Z,8.79
2023-02-24T08:29:12.467Z,9.17
2023-02-24T08:31:40.348Z,9.13
2023-02-24T08:37:48.544Z,9.21
2023-02-24T08:40:32.971Z,9.57
2023-02-24T08:43:25.548Z,9.71
2023-02-24T08:48:56.446Z,9.60
2023-02-24T08:51:35.086Z,9.48
2023-02-24T08:54:16.930Z,9.89
2023-02-24T08:56:49.286Z,10.07
2023-02-24T08:59:37.181Z,9.87
2023-02-24T09:02:18.875Z,9.67
2023-02-24T09:04:52.596Z,9.82
2023-02-24T09:07:35.638Z,9.55
2023-02-24T09:10:04.920Z,9.89
2023-02-24T09:12:32.315Z,10.18
2023-02-24T09:15:04.701Z,10.43
2023-02-24T09:17:49.809Z,10.51
2023-02-24T09:20:44.933Z,11.11
2023-02-24T09:23:20.263Z,10.91
2023-02-24T09:25:50.820Z,10.93
2023-02-24T09:28:29.279Z,10.51
2023-02-24T09:31:00.452Z,10.82
2023-02-24T09:33:38.849Z,10.94
2023-02-24T09:36:20.331Z,10.73
2023-02-24T09:38:59.384Z,10.39
2023-02-24T09:41:54.971Z,10.65
2023-02-24T09:44:44.371Z,10.52
2023-02-24T09:47:42.648Z,10.73
2023-02-24T09:50:14.219Z,10.50
2023-02-24T09:52:42.003Z,10.22
2023-02-24T09:55:25.200Z,10.63
2023-02-24T09:58:27.033Z,10.80
2023-02-24T10:01:34.375Z,10.58
2023-02-24T10:04:29.293Z,11.10
2023-02-24T10:07:03.115Z,10.79
2023-02-24T10:09:41.501Z,11.12
2023-02-24T10:12:24.080Z,11.18
2023-02-24T10:15:18.625Z,11.21
2023-02-24T10:17:55.583Z,11.30
2023-02-24T10:20:40.258Z,12.23
2023-02-24T10:23:29.638Z,13.02
2023-02-24T10:26:07.762Z,13.56
2023-02-24T10:28:46.367Z,13.76
2023-02-24T10:31:35.932Z,13.11
2023-02-24T10:34:09.951Z,13.34
2023-02-24T10:36:37.997Z,13.55
2023-02-24T10:39:17.365Z,13.77
2023-02-24T10:41:57.412Z,13.53
2023-02-24T10:44:36.473Z,13.43
2023-02-24T10:47:13.706Z,12.96
2023-02-24T10:49:57.498Z,12.71
2023-02-24T10:52:51.117Z,12.56
2023-02-24T10:55:50.340Z,13.11
2023-02-24T10:58:40.596Z,13.68
2023-02-24T11:01:41.064Z,14.41
2023-02-24T11:04:33.681Z,14.01
2023-02-24T11:07:13.388Z,14.87
2023-02-24T11:09:45.626Z,14.33
2023-02-24T11:12:43.630Z,13.41
2023-02-24T11:15:41.349Z,14.45
2023-02-24T11:18:18.436Z,14.42
2023-02-24T11:20:50.248Z,14.07
2023-02-24T11:23:25.969Z,14.51
2023-02-24T11:25:59.185Z,14.87
2023-02-24T11:28:59.609Z,14.26
2023-02-24T11:31:39.017Z,13.43
2023-02-24T11:34:20.644Z,13.70
2023-02-24T11:37:04.220Z,14.52
2023-02-24T11:39:53.598Z,14.49
2023-02-24T11:42:46.170Z,14.81
2023-02-24T11:45:25.239Z,14.78
2023-02-24T11:48:01.058Z,14.92
2023-02-24T11:50:46.553Z,14.37
2023-02-24T11:53:26.209Z,14.25
2023-02-24T11:56:05.301Z,14.75
2023-02-24T11:59:10.076Z,14.56
2023-02-24T12:02:00.233Z,14.34
2023-02-24T12:04:51.149Z,14.87
2023-02-24T12:07:29.387Z,15.28
2023-02-24T12:10:15.687Z,15.69
2023-02-24T12:13:05.716Z,15.89
2023-02-24T12:15:44.157Z,16.19
2023-02-24T12:18:27.212Z,16.22
2023-02-24T12:21:30.648Z,15.94
2023-02-24T12:23:59.113Z,15.96
2023-02-24T12:26:42.811Z,15.96
2023-02-24T12:29:16.173Z,15.92
2023-02-24T12:32:03.029Z,15.67
2023-02-24T12:34:30.466Z,15.54
2023-02-24T12:37:16.415Z,15.85
2023-02-24T12:39:46.701Z,16.08
2023-02-24T12:42:29.055Z,15.88
2023-02-24T12:45:24.320Z,15.87
2023-02-24T12:48:14.353Z,16.08
2023-02-24T12:50:50.652Z,16.15
2023-02-24T12:53:38.014Z,16.11
2023-02-24T12:56:25.661Z,16.04
2023-02-24T12:59:00.122Z,16.36
2023-02-24T13:01:50.007Z,16.39
2023-02-24T13:04:54.394Z,16.50
2023-02-24T13:07:41.635Z,16.15
2023-02-24T13:10:14.777Z,15.85
2023-02-24T13:12:45.820Z,16.03
2023-02-24T13:15:25.776Z,15.82
2023-02-24T13:17:57.773Z,16.02
2023-02-24T13:20:36.897Z,16.27
2023-02-24T13:23:22.076Z,15.96
2023-02-24T13:25:55.534Z,16.03
2023-02-24T13:28:27.081Z,15.81
2023-02-24T13:31:05.906Z,15.73
2023-02-24T13:33:39.240Z,15.50
2023-02-24T13:36:15.589Z,15.38
2023-02-24T13:38:46.223Z,14.96
2023-02-24T13:41:22.924Z,15.52
2023-02-24T13:44:17.367Z,15.54
2023-02-24T13:47:03.451Z,15.39
2023-02-24T13:49:43.349Z,15.12
2023-02-24T13:52:42.910Z,14.92
2023-02-24T13:55:48.160Z,15.04
2023-02-24T13:58:33.710Z,14.96
2023-02-24T14:01:11.326Z,14.97
2023-02-24T14:04:35.197Z,15.04
2023-02-24T14:06:35.028Z,15.05
2023-02-24T14:09:04.948Z,15.08
2023-02-24T14:11:37.824Z,15.12
2023-02-24T14:14:05.769Z,15.18
2023-02-24T14:16:38.467Z,15.37
2023-02-24T14:19:14.526Z,15.37
2023-02-24T14:21:59.046Z,15.33
2023-02-24T14:24:27.987Z,15.06
2023-02-24T14:26:59.443Z,15.13
2023-02-24T14:29:43.145Z,15.28
2023-02-24T14:32:29.437Z,15.28
2023-02-24T14:34:57.491Z,14.98
2023-02-24T14:37:30.725Z,14.91
2023-02-24T14:40:00.678Z,14.98
2023-02-24T14:42:29.345Z,15.10
2023-02-24T14:44:59.412Z,15.15
2023-02-24T14:47:28.953Z,14.94
2023-02-24T14:50:04.702Z,15.21
2023-02-24T14:52:49.957Z,15.07
2023-02-24T14:55:23.656Z,15.13
2023-02-24T14:58:01.878Z,14.98
2023-02-24T15:00:35.304Z,14.88
2023-02-24T15:03:25.341Z,14.94
2023-02-24T15:05:55.552Z,14.71
2023-02-24T15:08:43.430Z,14.49
2023-02-24T15:11:16.753Z,14.56
2023-02-24T15:13:51.401Z,14.62
2023-02-24T15:16:25.854Z,14.50
2023-02-24T15:18:56.105Z,14.53
2023-02-24T15:21:38.776Z,14.63
2023-02-24T15:24:34.642Z,14.47
2023-02-24T15:27:31.231Z,14.52
2023-02-24T15:30:21.334Z,14.48
2023-02-24T15:32:48.908Z,14.34
2023-02-24T15:35:24.855Z,14.39
2023-02-24T15:37:54.872Z,14.53
2023-02-24T15:40:25.562Z,14.44
2023-02-24T15:42:59.092Z,14.39
2023-02-24T15:45:26.515Z,14.28
2023-02-24T15:47:57.188Z,14.27
2023-02-24T15:50:25.328Z,14.15
2023-02-24T15:52:52.838Z,14.00
2023-02-24T15:55:21.873Z,13.98
2023-02-24T15:57:58.472Z,13.90
2023-02-24T16:00:26.229Z,13.95
2023-02-24T16:02:53.828Z,13.97
2023-02-24T16:05:21.372Z,14.11
2023-02-24T16:07:49.718Z,14.10
2023-02-24T16:10:26.186Z,14.07
2023-02-24T16:13:00.318Z,14.06
2023-02-24T16:15:38.000Z,14.06
2023-02-24T16:18:14.206Z,14.01
2023-02-24T16:20:43.222Z,13.90
2023-02-24T16:23:11.017Z,13.84
2023-02-24T16:26:03.063Z,13.73
2023-02-24T16:28:41.239Z,13.56
2023-02-24T16:31:13.485Z,13.38
2023-02-24T16:33:54.107Z,13.25
2023-02-24T16:36:24.657Z,13.09
2023-02-24T16:38:55.327Z,12.91
2023-02-24T16:41:28.020Z,12.77
2023-02-24T16:43:58.895Z,12.67
2023-02-24T16:46:33.065Z,12.58
2023-02-24T16:49:03.778Z,12.61
2023-02-24T16:51:35.706Z,12.63
2023-02-24T16:54:03.712Z,12.67
2023-02-24T16:56:33.678Z,12.60
2023-02-24T16:59:04.561Z,12.63
2023-02-24T17:01:39.195Z,12.65
2023-02-24T17:04:28.338Z,12.51
2023-02-24T17:06:59.262Z,12.53
2023-02-24T17:09:38.233Z,12.49
2023-02-24T17:12:09.683Z,12.57
2023-02-24T17:14:37.282Z,12.49
2023-02-24T17:17:04.916Z,12.49
2023-02-24T17:19:32.420Z,12.44
2023-02-24T17:21:59.893Z,12.51
2023-02-24T17:24:28.648Z,12.45
2023-02-24T17:27:00.592Z,12.48
2023-02-24T17:29:28.152Z,12.34
2023-02-24T17:31:55.883Z,12.38
2023-02-24T17:34:24.326Z,12.43
2023-02-24T17:36:53.378Z,12.40
2023-02-24T17:39:20.885Z,12.40
2023-02-24T17:41:48.399Z,12.41
2023-02-24T17:44:16.008Z,12.40
2023-02-24T17:46:43.512Z,12.47
2023-02-24T17:49:11.020Z,12.39
2023-02-24T17:51:38.485Z,12.30
2023-02-24T17:54:06.604Z,12.44
2023-02-24T17:56:34.076Z,12.42
2023-02-24T17:59:01.621Z,12.42
2023-02-24T18:01:29.461Z,12.40
2023-02-24T18:04:00.010Z,12.29
2023-02-24T18:06:27.544Z,12.23
2023-02-24T18:08:55.160Z,12.17
2023-02-24T18:11:22.676Z,12.12
2023-02-24T18:13:52.710Z,12.02
2023-02-24T18:16:20.734Z,12.10
2023-02-24T18:18:48.528Z,12.18
2023-02-24T18:21:16.107Z,12.21
2023-02-24T18:23:43.565Z,12.12
2023-02-24T18:26:23.890Z,12.07
2023-02-24T18:28:55.591Z,11.97
2023-02-24T18:31:25.269Z,11.99
2023-02-24T18:33:56.446Z,11.99
2023-02-24T18:36:25.040Z,11.99
2023-02-24T18:38:53.334Z,11.80
2023-02-24T18:41:24.244Z,11.74
2023-02-24T18:44:45.277Z,11.79
2023-02-24T18:47:14.163Z,11.82
2023-02-24T18:49:42.151Z,11.78
2023-02-24T18:52:11.609Z,11.77
2023-02-24T18:54:39.453Z,11.67
2023-02-24T18:57:07.107Z,11.66
2023-02-24T18:59:34.612Z,11.64
2023-02-24T19:02:02.195Z,11.48
2023-02-24T19:04:29.705Z,11.41
2023-02-24T19:06:57.222Z,11.34
2023-02-24T19:09:24.761Z,11.27
2023-02-24T19:11:54.227Z,11.26
2023-02-24T19:14:22.768Z,11.20
2023-02-24T19:16:50.336Z,11.20
2023-02-24T19:19:17.956Z,11.22
2023-02-24T19:21:45.882Z,11.25
2023-02-24T19:24:14.161Z,11.16
2023-02-24T19:26:43.960Z,11.16
2023-02-24T19:29:12.382Z,11.10
2023-02-24T19:31:40.532Z,11.06
2023-02-24T19:34:12.067Z,11.01
2023-02-24T19:36:41.202Z,11.12
2023-02-24T19:39:10.955Z,11.08
2023-02-24T19:41:38.611Z,11.11
2023-02-24T19:44:06.192Z,11.14
2023-02-24T19:46:34.365Z,11.07
2023-02-24T19:49:02.327Z,11.02
2023-02-24T19:51:47.800Z,10.99
2023-02-24T19:54:16.271Z,11.06
2023-02-24T19:56:44.283Z,11.02
2023-02-24T19:59:11.811Z,10.96
2023-02-24T20:01:39.470Z,10.95
2023-02-24T20:04:07.301Z,10.90
2023-02-24T20:06:40.327Z,11.09
2023-02-24T20:09:15.524Z,11.17
2023-02-24T20:11:45.178Z,11.19
2023-02-24T20:14:13.105Z,11.21
2023-02-24T20:16:42.090Z,11.31
2023-02-24T20:19:11.601Z,11.29
2023-02-24T20:21:42.149Z,11.05
2023-02-24T20:24:14.133Z,11.02
2023-02-24T20:31:15.667Z,11.10
2023-02-24T20:34:13.216Z,11.23
2023-02-24T20:43:39.189Z,11.36
2023-02-24T20:46:25.578Z,11.19
2023-02-24T20:49:00.898Z,11.20
2023-02-24T20:51:47.613Z,11.17
2023-02-24T20:54:16.559Z,10.89
2023-02-24T20:56:45.906Z,10.94
2023-02-24T20:59:18.764Z,10.84
2023-02-24T21:01:48.585Z,10.82
2023-02-24T21:04:19.883Z,10.63
2023-02-24T21:06:49.011Z,10.69
2023-02-24T21:09:16.975Z,10.73
2023-02-24T21:11:49.822Z,10.61
2023-02-24T21:14:23.099Z,10.65
2023-02-24T21:17:03.231Z,10.62
2023-02-24T21:19:38.284Z,10.48
2023-02-24T21:22:26.316Z,10.47
2023-02-24T21:25:01.427Z,10.48
2023-02-24T21:27:28.993Z,10.37
2023-02-24T21:29:56.768Z,10.47
2023-02-24T21:32:26.552Z,10.54
2023-02-24T21:34:54.351Z,10.48
2023-02-24T21:37:21.928Z,10.60
2023-02-24T21:39:54.722Z,10.56
2023-02-24T22:14:57.632Z,10.02
2023-02-24T22:18:07.422Z,10.12
2023-02-24T22:20:54.284Z,10.12
2023-02-24T22:27:20.506Z,9.92
2023-02-24T22:31:00.717Z,9.91
2023-02-24T22:34:01.547Z,9.78
2023-02-24T22:36:33.332Z,9.84
2023-02-24T22:39:02.078Z,9.90
2023-02-24T22:41:32.320Z,9.81
2023-02-24T22:44:02.829Z,9.80
2023-02-24T22:46:33.364Z,9.78
2023-02-24T22:49:01.413Z,9.85
2023-02-24T22:51:29.050Z,9.74
2023-02-24T22:53:56.802Z,9.67
2023-02-24T22:56:27.166Z,9.60
2023-02-24T22:58:56.649Z,9.61
2023-02-24T23:01:29.889Z,9.79
2023-02-24T23:04:02.225Z,9.60
2023-02-24T23:06:30.808Z,9.71
2023-02-24T23:08:59.982Z,9.47
2023-02-24T23:11:36.948Z,9.52
2023-02-24T23:14:10.013Z,9.40
2023-02-24T23:16:38.850Z,9.52
2023-02-24T23:19:13.058Z,9.49
2023-02-24T23:21:43.157Z,9.33
2023-02-24T23:24:12.580Z,9.47
2023-02-24T23:26:43.722Z,9.57
2023-02-24T23:29:13.919Z,9.67
2023-02-24T23:31:44.650Z,9.75
2023-02-24T23:34:13.209Z,9.80
2023-02-24T23:36:43.928Z,9.63
2023-02-24T23:39:14.097Z,9.73
2023-02-24T23:41:44.191Z,9.68
2023-02-24T23:44:12.607Z,9.51
2023-02-24T23:46:41.844Z,9.51
2023-02-24T23:49:09.776Z,9.55
2023-02-24T23:51:53.002Z,9.40
2023-02-24T23:54:20.657Z,9.44
2023-02-24T23:56:48.229Z,9.37
2023-02-24T23:59:16.087Z,9.46
